Time;durP1;ratioP1;P1;durP2;ratioP2;P2;SDS_P1;SDS_P2;PMS_P1;PMS_P2;Temp;Humidity;BMP_temperature;BMP_pressure;BME280_temperature;BME280_humidity;BME280_pressure;Samples;Min_cycle;Max_cycle;Signal;HPM_P1;HPM_P2
2024/01/18 00:02:10;;;;;;;0.00;0.00;;;;;;;12.25;100.00;96582.91;5094078;28;20123;-47
2024/01/18 00:04:36;;;;;;;0.00;0.00;;;;;;;12.21;100.00;96586.31;5094066;28;20046;-47
2024/01/18 00:07:02;;;;;;;0.00;0.00;;;;;;;12.32;100.00;96588.69;5109659;28;20458;-47
2024/01/18 00:09:28;;;;;;;0.00;0.00;;;;;;;12.74;100.00;96578.94;5093922;28;20059;-47
2024/01/18 00:11:54;;;;;;;0.00;0.00;;;;;;;12.87;100.00;96569.69;5093904;28;20055;-47
2024/01/18 00:14:19;;;;;;;0.10;0.08;;;;;;;12.97;100.00;96573.06;5093825;28;20390;-47
2024/01/18 00:16:46;;;;;;;0.13;0.13;;;;;;;13.11;100.00;96573.31;5075764;28;20107;-47
2024/01/18 00:19:11;;;;;;;1.45;0.32;;;;;;;13.22;100.00;96568.81;5093667;28;20056;-47
2024/01/18 00:21:37;;;;;;;0.00;0.00;;;;;;;13.27;100.00;96557.44;5109392;28;20510;-47
2024/01/18 00:24:03;;;;;;;0.00;0.00;;;;;;;13.34;100.00;96558.78;5109088;28;20490;-47
2024/01/18 00:26:29;;;;;;;0.55;0.38;;;;;;;13.36;100.00;96558.47;5093056;28;20490;-47
2024/01/18 00:28:54;;;;;;;1.48;0.80;;;;;;;13.56;100.00;96549.69;5108769;28;20418;-47
2024/01/18 00:31:20;;;;;;;0.00;0.00;;;;;;;13.71;100.00;96548.84;5109189;28;20025;-47
2024/01/18 00:33:46;;;;;;;0.00;0.00;;;;;;;13.78;100.00;96541.41;5109160;28;20390;-47
2024/01/18 00:36:12;;;;;;;0.30;0.30;;;;;;;13.82;100.00;96554.81;5109068;28;20402;-47
2024/01/18 00:38:37;;;;;;;0.47;0.47;;;;;;;13.93;100.00;96549.22;5093602;28;20402;-47
2024/01/18 00:41:03;;;;;;;0.00;0.00;;;;;;;13.97;100.00;96562.66;5093293;28;20031;-47
2024/01/18 00:43:30;;;;;;;0.22;0.22;;;;;;;13.72;100.00;96560.94;5093271;28;20389;-47
2024/01/18 00:45:56;;;;;;;0.10;0.10;;;;;;;13.54;100.00;96568.44;5093243;28;20497;-46
2024/01/18 00:48:22;;;;;;;4.82;4.35;;;;;;;13.43;100.00;96556.34;5093067;28;20056;-46
2024/01/18 00:50:47;;;;;;;6.25;5.85;;;;;;;13.31;100.00;96546.13;5091757;28;20032;-46
2024/01/18 00:53:13;;;;;;;4.60;4.22;;;;;;;13.18;100.00;96536.94;5091712;28;20123;-46
2024/01/18 00:55:39;;;;;;;1.40;1.30;;;;;;;13.09;100.00;96537.78;5092937;28;20020;-46
2024/01/18 00:58:04;;;;;;;1.13;1.10;;;;;;;12.98;100.00;96527.28;5092845;28;20577;-45
2024/01/18 01:00:30;;;;;;;2.03;1.83;;;;;;;12.97;100.00;96520.41;5092947;28;20102;-45
2024/01/18 01:02:56;;;;;;;3.15;1.55;;;;;;;12.85;100.00;96525.19;5092882;28;20406;-45
2024/01/18 01:05:22;;;;;;;1.67;1.40;;;;;;;12.79;100.00;96521.78;5092842;28;20020;-46
2024/01/18 01:07:47;;;;;;;1.92;1.23;;;;;;;12.74;100.00;96532.34;5093082;28;20024;-45
2024/01/18 01:10:13;;;;;;;8.25;4.10;;;;;;;12.67;100.00;96528.41;5108365;28;20595;-46
2024/01/18 01:12:39;;;;;;;1.67;1.58;;;;;;;12.62;100.00;96526.59;5092829;28;20475;-46
2024/01/18 01:15:07;;;;;;;1.00;0.90;;;;;;;12.49;100.00;96543.69;5092623;28;20161;-46
2024/01/18 01:17:33;;;;;;;0.15;0.15;;;;;;;12.41;100.00;96559.22;5092541;28;20026;-46
2024/01/18 01:19:58;;;;;;;0.10;0.10;;;;;;;12.22;100.00;96561.63;5108260;28;20486;-45
2024/01/18 01:22:24;;;;;;;0.00;0.00;;;;;;;12.12;100.00;96557.91;5092508;28;20103;-45
2024/01/18 01:24:50;;;;;;;0.20;0.20;;;;;;;12.15;100.00;96541.63;5107877;28;20044;-46
2024/01/18 01:27:15;;;;;;;0.30;0.30;;;;;;;12.17;100.00;96541.34;5092454;28;20028;-45
2024/01/18 01:29:41;;;;;;;0.00;0.00;;;;;;;12.13;100.00;96551.63;5108093;28;20487;-45
2024/01/18 01:32:07;;;;;;;0.08;0.08;;;;;;;12.03;100.00;96546.34;5108045;28;20066;-45
2024/01/18 01:34:32;;;;;;;1.95;1.63;;;;;;;11.93;100.00;96543.69;5092385;28;20043;-45
2024/01/18 01:36:58;;;;;;;0.15;0.15;;;;;;;11.98;100.00;96536.63;5092305;28;20024;-44
2024/01/18 01:39:24;;;;;;;0.00;0.00;;;;;;;12.04;100.00;96534.78;5107599;28;20025;-44
2024/01/18 01:41:49;;;;;;;0.00;0.00;;;;;;;12.17;100.00;96526.38;5108169;28;20028;-45
2024/01/18 01:44:15;;;;;;;0.00;0.00;;;;;;;12.22;100.00;96525.59;5107844;28;20168;-45
2024/01/18 01:46:41;;;;;;;0.05;0.05;;;;;;;12.18;100.00;96527.94;5090868;28;20028;-45
2024/01/18 01:49:07;;;;;;;0.00;0.00;;;;;;;12.32;100.00;96533.47;5107709;28;20028;-45
2024/01/18 01:51:50;;;;;;;0.10;0.10;;;;;;;12.47;100.00;96539.75;5092104;28;20379;-45
2024/01/18 01:54:19;;;;;;;0.00;0.00;;;;;;;12.56;100.00;96544.22;5092102;28;20020;-45
2024/01/18 01:56:49;;;;;;;0.32;0.32;;;;;;;12.55;100.00;96531.31;5092003;28;20085;-46
2024/01/18 01:59:16;;;;;;;0.00;0.00;;;;;;;12.58;100.00;96552.63;5107559;28;20016;-46
2024/01/18 02:01:45;;;;;;;0.10;0.10;;;;;;;12.70;100.00;96551.56;5091962;28;20536;-46
2024/01/18 02:04:11;;;;;;;0.00;0.00;;;;;;;12.68;100.00;96535.25;5091986;28;20026;-46
2024/01/18 02:06:40;;;;;;;0.00;0.00;;;;;;;12.66;100.00;96529.47;5091882;28;20024;-47
2024/01/18 02:09:07;;;;;;;0.00;0.00;;;;;;;12.56;100.00;96544.22;5090617;28;20493;-47
2024/01/18 02:11:34;;;;;;;0.00;0.00;;;;;;;12.55;100.00;96531.31;5107472;28;20028;-47
2024/01/18 02:14:00;;;;;;;0.00;0.00;;;;;;;12.44;100.00;96541.09;5091887;28;20020;-46
2024/01/18 02:16:26;;;;;;;0.00;0.00;;;;;;;12.33;100.00;96539.50;5107435;28;20028;-46
2024/01/18 02:18:52;;;;;;;0.00;0.00;;;;;;;12.34;100.00;96522.69;5090850;28;20028;-46
2024/01/18 02:21:18;;;;;;;2.47;2.33;;;;;;;12.39;100.00;96515.59;5107403;28;20047;-46
2024/01/18 02:23:48;;;;;;;1.77;1.65;;;;;;;12.37;100.00;96504.53;5091797;28;20099;-46
2024/01/18 02:26:13;;;;;;;2.72;2.15;;;;;;;12.34;100.00;96531.34;5091562;28;20498;-47
2024/01/18 02:28:53;;;;;;;0.30;0.30;;;;;;;12.32;100.00;96504.53;5091794;28;20037;-46
2024/01/18 02:31:19;;;;;;;0.10;0.10;;;;;;;12.33;100.00;96500.84;5091729;28;20489;-47
2024/01/18 02:33:44;;;;;;;0.13;0.13;;;;;;;12.36;100.00;96521.34;5091679;28;20039;-47
2024/01/18 02:36:10;;;;;;;8.98;7.50;;;;;;;12.33;100.00;96494.78;5091639;28;20024;-47
2024/01/18 02:38:37;;;;;;;12.55;9.10;;;;;;;12.30;100.00;96498.75;5091609;28;20031;-47
2024/01/18 02:41:03;;;;;;;6.93;4.63;;;;;;;12.26;100.00;96504.81;5091574;28;20105;-47
2024/01/18 02:43:29;;;;;;;11.77;10.45;;;;;;;12.19;100.00;96503.25;5090383;28;20012;-47
2024/01/18 02:45:55;;;;;;;16.00;14.40;;;;;;;12.31;100.00;96484.53;5091538;28;20024;-47
2024/01/18 02:48:20;;;;;;;11.40;10.00;;;;;;;12.39;100.00;96489.28;5091464;28;20060;-47
2024/01/18 02:50:46;;;;;;;12.50;8.07;;;;;;;12.51;100.00;96498.72;5093089;28;20033;-47
2024/01/18 02:53:12;;;;;;;8.45;6.95;;;;;;;12.50;100.00;96512.94;5111068;28;20451;-47
2024/01/18 02:55:37;;;;;;;66.82;60.15;;;;;;;12.53;100.00;96500.00;5110999;28;20024;-47
2024/01/18 02:58:04;;;;;;;30.20;26.88;;;;;;;12.52;100.00;96514.22;5095203;28;20024;-47
2024/01/18 03:00:30;;;;;;;44.88;39.03;;;;;;;12.60;100.00;96491.84;5095241;28;20066;-47
2024/01/18 03:02:55;;;;;;;13.63;12.10;;;;;;;12.57;100.00;96510.78;5095218;28;20016;-47
2024/01/18 03:05:21;;;;;;;26.10;21.85;;;;;;;12.48;100.00;96507.94;5094135;28;20131;-47
2024/01/18 03:07:47;;;;;;;26.17;23.10;;;;;;;12.33;100.00;96513.19;5093854;28;20510;-46
2024/01/18 03:10:13;;;;;;;43.85;39.80;;;;;;;12.12;100.00;96531.63;5093832;28;20028;-47
2024/01/18 03:12:39;;;;;;;18.52;16.42;;;;;;;12.07;100.00;96521.09;5093717;28;20020;-46
2024/01/18 03:15:10;;;;;;;10.07;6.72;;;;;;;12.05;100.00;96525.81;5095001;28;20494;-46
2024/01/18 03:17:35;;;;;;;12.65;11.00;;;;;;;11.93;100.00;96509.53;5110593;28;20024;-46
2024/01/18 03:20:06;;;;;;;8.93;6.22;;;;;;;11.88;100.00;96520.03;5094756;28;20103;-46
2024/01/18 03:22:34;;;;;;;14.70;10.23;;;;;;;11.92;100.00;96534.25;5094893;28;20028;-46
2024/01/18 03:25:00;;;;;;;6.97;4.88;;;;;;;12.01;100.00;96537.13;5094711;28;20488;-46
2024/01/18 03:27:26;;;;;;;11.27;7.38;;;;;;;12.05;100.00;96514.53;5095050;28;20016;-47
2024/01/18 03:29:51;;;;;;;10.63;6.78;;;;;;;12.19;100.00;96523.47;5094999;28;20024;-47
2024/01/18 03:32:17;;;;;;;7.88;6.43;;;;;;;12.39;100.00;96510.31;5110314;28;20024;-47
2024/01/18 03:34:43;;;;;;;7.25;4.75;;;;;;;12.49;100.00;96527.91;5110340;28;20035;-47
2024/01/18 03:37:09;;;;;;;6.22;3.63;;;;;;;12.60;100.00;96528.69;5110206;28;20024;-47
2024/01/18 03:39:38;;;;;;;6.95;4.82;;;;;;;12.57;100.00;96511.56;5094487;28;20020;-47
2024/01/18 03:42:04;;;;;;;7.72;4.55;;;;;;;12.74;100.00;96519.19;5093301;28;20447;-47
2024/01/18 03:44:32;;;;;;;8.85;4.95;;;;;;;12.89;100.00;96536.78;5094453;28;20043;-47
2024/01/18 03:47:01;;;;;;;5.28;4.07;;;;;;;12.88;100.00;96524.69;5094392;28;20542;-47
2024/01/18 03:49:28;;;;;;;5.47;3.50;;;;;;;12.86;100.00;96524.16;5094330;28;20054;-47
2024/01/18 03:51:53;;;;;;;3.95;3.10;;;;;;;12.72;100.00;96520.50;5094253;28;20501;-47
2024/01/18 03:54:20;;;;;;;4.13;2.70;;;;;;;12.59;100.00;96520.00;5094169;28;20043;-46
2024/01/18 03:56:46;;;;;;;6.07;4.15;;;;;;;12.28;100.00;96518.47;5094217;28;20086;-45
2024/01/18 03:59:15;;;;;;;6.30;4.15;;;;;;;12.07;100.00;96517.69;5109738;28;20027;-45
2024/01/18 04:01:41;;;;;;;5.93;3.90;;;;;;;12.07;100.00;96518.47;5094126;28;20024;-45
2024/01/18 04:04:08;;;;;;;20.08;17.92;;;;;;;12.04;100.00;96516.38;5093983;28;20058;-45
2024/01/18 04:06:33;;;;;;;0.47;0.47;;;;;;;11.99;100.00;96511.09;5094268;28;20020;-45
2024/01/18 04:08:59;;;;;;;4.85;0.70;;;;;;;11.98;100.00;96512.97;5109935;28;20486;-46
2024/01/18 04:11:25;;;;;;;7.60;3.92;;;;;;;12.03;100.00;96521.91;5109539;28;20532;-46
2024/01/18 04:13:50;;;;;;;5.18;3.55;;;;;;;12.05;100.00;96528.47;5093926;28;20031;-46
2024/01/18 04:16:16;;;;;;;6.75;5.70;;;;;;;12.02;100.00;96518.47;5093797;28;20062;-46
2024/01/18 04:18:42;;;;;;;10.10;6.72;;;;;;;11.98;100.00;96514.81;5093616;28;20020;-47
2024/01/18 04:21:08;;;;;;;17.98;15.73;;;;;;;12.04;100.00;96521.63;5093679;28;20024;-47
2024/01/18 04:23:34;;;;;;;7.07;4.82;;;;;;;12.16;100.00;96514.28;5093690;28;20024;-47
2024/01/18 04:25:59;;;;;;;11.32;9.80;;;;;;;12.12;100.00;96534.25;5109037;28;20055;-47
2024/01/18 04:28:25;;;;;;;5.82;4.45;;;;;;;12.17;100.00;96509.78;5109298;28;20028;-46
2024/01/18 04:30:51;;;;;;;6.57;4.65;;;;;;;12.14;100.00;96540.03;5093516;28;20517;-45
2024/01/18 04:33:18;;;;;;;5.78;4.65;;;;;;;12.04;100.00;96502.44;5093746;28;20108;-45
2024/01/18 04:35:44;;;;;;;4.35;3.10;;;;;;;11.96;100.00;96516.91;5093635;28;20043;-46
2024/01/18 04:38:10;;;;;;;7.68;5.47;;;;;;;11.95;100.00;96524.00;5092329;28;20390;-46
2024/01/18 04:40:36;;;;;;;4.82;3.83;;;;;;;12.07;100.00;96502.69;5108977;28;20521;-46
2024/01/18 04:43:02;;;;;;;6.85;4.57;;;;;;;12.08;100.00;96517.44;5093330;28;20452;-47
2024/01/18 04:45:28;;;;;;;11.07;8.95;;;;;;;12.14;100.00;96534.78;5093205;28;20024;-47
2024/01/18 04:47:56;;;;;;;4.35;2.60;;;;;;;12.25;100.00;96538.19;5093223;28;20493;-47
2024/01/18 04:50:24;;;;;;;7.30;5.15;;;;;;;12.31;100.00;96533.72;5093005;28;20031;-47
2024/01/18 04:52:51;;;;;;;8.13;3.50;;;;;;;12.37;100.00;96562.41;5093121;28;20047;-47
2024/01/18 04:55:17;;;;;;;8.38;4.07;;;;;;;12.44;100.00;96527.94;5093012;28;20551;-47
2024/01/18 04:57:43;;;;;;;7.63;3.80;;;;;;;12.54;100.00;96542.91;5092968;28;20028;-47
2024/01/18 05:00:10;;;;;;;4.75;3.13;;;;;;;12.50;100.00;96542.66;5092961;28;20043;-47
2024/01/18 05:02:39;;;;;;;4.07;2.42;;;;;;;12.48;100.00;96541.34;5093207;28;20559;-47
2024/01/18 05:05:08;;;;;;;6.13;4.38;;;;;;;12.51;100.00;96557.38;5092873;28;20035;-47
2024/01/18 05:07:37;;;;;;;7.65;4.45;;;;;;;12.69;100.00;96561.28;5092855;28;20521;-47
2024/01/18 05:10:05;;;;;;;3.67;2.22;;;;;;;12.89;100.00;96551.78;5108454;28;20524;-47
2024/01/18 05:12:31;;;;;;;5.50;2.10;;;;;;;12.88;100.00;96544.97;5108279;28;20028;-47
2024/01/18 05:14:57;;;;;;;3.97;2.55;;;;;;;12.88;100.00;96548.38;5091113;28;20040;-47
2024/01/18 05:17:29;;;;;;;5.03;3.00;;;;;;;12.91;100.00;96562.84;5092689;28;20444;-47
2024/01/18 05:19:55;;;;;;;6.38;2.95;;;;;;;12.97;100.00;96554.66;5092628;28;20063;-47
2024/01/18 05:22:21;;;;;;;5.18;3.65;;;;;;;12.96;100.00;96574.16;5092583;28;20051;-47
2024/01/18 05:24:47;;;;;;;4.90;2.97;;;;;;;12.94;100.00;96557.84;5092169;28;20044;-48
2024/01/18 05:27:13;;;;;;;2.97;2.42;;;;;;;13.02;100.00;96538.06;5092446;28;20031;-47
2024/01/18 05:29:38;;;;;;;7.32;4.13;;;;;;;12.99;100.00;96542.00;5091157;28;20032;-47
2024/01/18 05:32:04;;;;;;;4.32;2.78;;;;;;;13.02;100.00;96558.31;5108023;28;20031;-47
2024/01/18 05:34:30;;;;;;;6.90;2.78;;;;;;;12.99;100.00;96565.69;5092384;28;20397;-47
2024/01/18 05:36:56;;;;;;;3.70;2.63;;;;;;;13.01;100.00;96533.06;5092349;28;20085;-46
2024/01/18 05:39:21;;;;;;;3.75;2.50;;;;;;;13.06;100.00;96575.97;5107794;28;20421;-47
2024/01/18 05:41:47;;;;;;;3.65;2.30;;;;;;;13.11;100.00;96575.94;5107921;28;20028;-47
2024/01/18 05:44:14;;;;;;;6.93;6.18;;;;;;;13.21;100.00;96572.47;5092243;28;20043;-47
2024/01/18 05:46:39;;;;;;;5.00;2.83;;;;;;;13.29;100.00;96571.16;5107762;28;20024;-47
2024/01/18 05:49:05;;;;;;;4.97;2.78;;;;;;;13.26;100.00;96554.03;5090820;28;20058;-47
2024/01/18 05:51:31;;;;;;;4.15;2.53;;;;;;;13.29;100.00;96568.50;5092080;28;20016;-47
2024/01/18 05:53:56;;;;;;;4.50;2.17;;;;;;;13.24;100.00;96569.31;5107695;28;20039;-46
2024/01/18 05:56:22;;;;;;;6.63;3.58;;;;;;;13.27;100.00;96573.25;5092011;28;20012;-47
2024/01/18 05:58:48;;;;;;;4.50;2.30;;;;;;;13.23;100.00;96574.84;5091938;28;20509;-47
2024/01/18 06:01:13;;;;;;;3.50;2.65;;;;;;;13.18;100.00;96563.28;5091986;28;20020;-47
2024/01/18 06:03:39;;;;;;;4.82;2.95;;;;;;;13.22;100.00;96575.91;5107633;28;20114;-47
2024/01/18 06:06:05;;;;;;;5.35;4.07;;;;;;;13.16;100.00;96588.31;5091876;28;20024;-46
2024/01/18 06:08:31;;;;;;;10.57;8.88;;;;;;;13.09;100.00;96596.47;5091916;28;20031;-47
2024/01/18 06:10:57;;;;;;;8.73;4.30;;;;;;;13.06;100.00;96569.88;5091880;28;20020;-47
2024/01/18 06:13:23;;;;;;;8.05;3.95;;;;;;;13.17;100.00;96585.41;5107480;28;20116;-45
2024/01/18 06:15:50;;;;;;;7.95;4.93;;;;;;;13.27;100.00;96578.53;5091766;28;20085;-44
2024/01/18 06:18:15;;;;;;;5.22;3.88;;;;;;;13.28;100.00;96574.81;5090538;28;20402;-44
2024/01/18 06:20:41;;;;;;;4.93;3.53;;;;;;;13.38;100.00;96585.34;5091758;28;20035;-45
2024/01/18 06:23:07;;;;;;;4.65;2.05;;;;;;;13.46;100.00;96584.00;5107355;28;20065;-45
2024/01/18 06:25:33;;;;;;;4.18;2.30;;;;;;;13.57;100.00;96564.47;5092573;28;20047;-45
2024/01/18 06:27:58;;;;;;;7.95;4.13;;;;;;;13.50;100.00;96598.22;5095936;28;20020;-45
2024/01/18 06:30:24;;;;;;;8.70;3.45;;;;;;;13.53;100.00;96574.75;5111515;28;20402;-45
2024/01/18 06:32:50;;;;;;;4.43;3.13;;;;;;;13.54;100.00;96578.16;5095774;28;20048;-45
2024/01/18 06:35:16;;;;;;;4.72;2.45;;;;;;;13.47;100.00;96562.66;5111432;28;20494;-45
2024/01/18 06:37:42;;;;;;;8.88;4.20;;;;;;;13.47;100.00;96575.06;5095717;28;20043;-45
2024/01/18 06:40:09;;;;;;;3.83;2.80;;;;;;;13.50;100.00;96579.75;5095638;28;20523;-45
2024/01/18 06:42:35;;;;;;;4.00;1.65;;;;;;;13.57;100.00;96559.19;5111338;28;20056;-45
2024/01/18 06:45:02;;;;;;;6.72;4.18;;;;;;;13.47;100.00;96580.31;5095852;28;20042;-45
2024/01/18 06:47:28;;;;;;;7.25;5.47;;;;;;;13.51;100.00;96591.91;5094396;28;20039;-45
2024/01/18 06:49:54;;;;;;;7.53;3.55;;;;;;;13.49;100.00;96591.38;5094145;28;20486;-45
2024/01/18 06:52:20;;;;;;;3.85;3.55;;;;;;;13.62;100.00;96597.91;5095416;28;20077;-45
2024/01/18 06:54:46;;;;;;;6.45;2.95;;;;;;;13.69;100.00;96612.38;5095454;28;20024;-45
2024/01/18 06:57:11;;;;;;;5.18;4.57;;;;;;;13.77;100.00;96590.69;5110982;28;20020;-45
2024/01/18 06:59:44;;;;;;;4.03;3.63;;;;;;;13.77;100.00;96611.00;5110986;28;20492;-45
2024/01/18 07:02:10;;;;;;;11.32;10.25;;;;;;;13.81;100.00;96609.41;5095294;28;20031;-45
2024/01/18 07:04:36;;;;;;;7.63;6.93;;;;;;;13.86;100.00;96624.41;5093917;28;20405;-45
2024/01/18 07:07:01;;;;;;;6.63;5.80;;;;;;;14.03;100.00;96618.78;5093906;28;20035;-45
2024/01/18 07:09:27;;;;;;;3.35;2.30;;;;;;;14.14;100.00;96615.00;5095192;28;20158;-45
2024/01/18 07:11:53;;;;;;;3.35;1.73;;;;;;;14.14;100.00;96599.97;5093852;28;20024;-45
2024/01/18 07:14:18;;;;;;;2.58;1.80;;;;;;;13.97;100.00;96616.16;5095076;28;20541;-45
2024/01/18 07:16:44;;;;;;;2.47;1.42;;;;;;;14.00;100.00;96638.56;5095088;28;20017;-45
2024/01/18 07:19:10;;;;;;;6.80;1.98;;;;;;;13.99;100.00;96624.59;5110655;28;20073;-45
2024/01/18 07:21:36;;;;;;;3.97;1.50;;;;;;;14.05;100.00;96638.53;5110700;28;20028;-45
2024/01/18 07:24:01;;;;;;;1.75;1.40;;;;;;;14.09;100.00;96633.53;5110623;28;20482;-45
2024/01/18 07:26:30;;;;;;;2.80;1.23;;;;;;;14.24;100.00;96646.59;5110310;28;20413;-45
2024/01/18 07:28:56;;;;;;;2.35;1.10;;;;;;;14.18;100.00;96656.41;5094849;28;20032;-45
2024/01/18 07:31:21;;;;;;;2.30;1.20;;;;;;;14.21;100.00;96655.06;5094703;28;20030;-45
2024/01/18 07:33:50;;;;;;;3.13;1.45;;;;;;;14.15;100.00;96642.97;5094735;28;20513;-45
2024/01/18 07:36:18;;;;;;;5.20;1.75;;;;;;;14.19;100.00;96649.28;5094014;28;20107;-45
2024/01/18 07:38:44;;;;;;;5.45;1.17;;;;;;;14.23;100.00;96636.34;5094565;28;20020;-46
2024/01/18 07:41:10;;;;;;;2.67;1.38;;;;;;;14.29;100.00;96643.16;5094480;28;20099;-45
2024/01/18 07:43:36;;;;;;;3.53;1.50;;;;;;;14.39;100.00;96637.81;5110160;28;20111;-45
2024/01/18 07:46:02;;;;;;;2.45;1.33;;;;;;;14.34;100.00;96645.75;5094415;28;20074;-47
2024/01/18 07:48:29;;;;;;;2.58;1.42;;;;;;;14.31;100.00;96633.13;5110087;28;20032;-47
2024/01/18 07:50:55;;;;;;;5.38;1.40;;;;;;;14.28;100.00;96650.25;5094373;28;20020;-47
2024/01/18 07:53:23;;;;;;;4.53;1.75;;;;;;;14.27;100.00;96656.63;5094302;28;20174;-47
2024/01/18 07:55:49;;;;;;;3.47;1.42;;;;;;;14.37;100.00;96666.31;5094237;28;20024;-47
2024/01/18 07:58:15;;;;;;;4.95;3.88;;;;;;;14.42;100.00;96642.50;5094157;28;20095;-45
2024/01/18 08:00:41;;;;;;;3.75;2.50;;;;;;;14.46;100.00;96643.53;5094063;28;20027;-45
2024/01/18 08:03:07;;;;;;;4.47;1.70;;;;;;;14.44;100.00;96644.88;5094003;28;20032;-45
2024/01/18 08:05:33;;;;;;;3.25;1.50;;;;;;;14.46;100.00;96642.75;5109669;28;20028;-46
2024/01/18 08:07:59;;;;;;;2.33;1.30;;;;;;;14.41;100.00;96651.50;5093981;28;20085;-45
2024/01/18 08:10:25;;;;;;;6.25;1.83;;;;;;;14.39;100.00;96651.78;5093941;28;20482;-45
2024/01/18 08:12:52;;;;;;;2.85;1.17;;;;;;;14.35;100.00;96660.53;5109583;28;20046;-45
2024/01/18 08:15:18;;;;;;;6.88;1.65;;;;;;;14.37;100.00;96648.63;5093846;28;20054;-47
2024/01/18 08:17:44;;;;;;;5.40;2.60;;;;;;;14.27;100.00;96659.25;5093777;28;20024;-47
2024/01/18 08:20:13;;;;;;;3.53;1.67;;;;;;;13.94;100.00;96677.38;5109434;28;20024;-47
2024/01/18 08:22:40;;;;;;;6.50;2.28;;;;;;;13.56;100.00;96665.66;5093698;28;20027;-47
2024/01/18 08:25:07;;;;;;;4.13;2.20;;;;;;;13.22;100.00;96678.63;5093409;28;20048;-47
2024/01/18 08:27:32;;;;;;;11.93;10.82;;;;;;;12.97;100.00;96677.63;5093615;28;20039;-46
2024/01/18 08:30:03;;;;;;;4.35;2.45;;;;;;;12.81;100.00;96661.03;5092282;28;20114;-46
2024/01/18 08:32:33;;;;;;;2.58;1.50;;;;;;;12.60;100.00;96678.69;5093512;28;20028;-46
2024/01/18 08:34:58;;;;;;;7.00;2.13;;;;;;;12.50;100.00;96678.69;5094017;28;20024;-46
2024/01/18 08:37:24;;;;;;;4.65;2.22;;;;;;;12.50;100.00;96676.06;5093401;28;20390;-47
2024/01/18 08:39:50;;;;;;;4.95;2.05;;;;;;;12.52;100.00;96692.38;5109017;28;20028;-47
2024/01/18 08:42:16;;;;;;;4.93;2.08;;;;;;;12.46;100.00;96699.47;5093374;28;20063;-46
2024/01/18 08:44:46;;;;;;;4.85;2.08;;;;;;;12.40;100.00;96689.97;5093312;28;20495;-47
2024/01/18 08:47:15;;;;;;;5.65;2.28;;;;;;;12.41;100.00;96696.03;5093165;28;20059;-47
2024/01/18 08:49:40;;;;;;;27.30;23.40;;;;;;;12.46;100.00;96707.34;5092451;28;20028;-47
2024/01/18 08:52:07;;;;;;;5.32;4.78;;;;;;;12.51;100.00;96702.06;5091908;28;20068;-47
2024/01/18 08:54:32;;;;;;;3.55;1.80;;;;;;;12.52;100.00;96718.69;5093176;28;20035;-47
2024/01/18 08:56:58;;;;;;;17.85;15.38;;;;;;;12.64;100.00;96703.44;5093052;28;20024;-47
2024/01/18 08:59:24;;;;;;;9.00;3.38;;;;;;;12.83;100.00;96724.75;5092940;28;20020;-47
2024/01/18 09:01:50;;;;;;;2.83;1.70;;;;;;;13.02;100.00;96730.28;5092970;28;20020;-48
2024/01/18 09:04:16;;;;;;;3.50;1.83;;;;;;;13.22;100.00;96718.94;5092886;28;20063;-47
2024/01/18 09:06:45;;;;;;;5.68;2.35;;;;;;;13.48;100.00;96718.91;5108608;28;20035;-45
2024/01/18 09:09:11;;;;;;;3.83;1.70;;;;;;;13.55;100.00;96724.69;5092861;28;20040;-46
2024/01/18 09:11:41;;;;;;;2.05;1.42;;;;;;;13.66;100.00;96726.25;5108460;28;20047;-45
2024/01/18 09:14:07;;;;;;;4.22;1.65;;;;;;;13.89;100.00;96755.72;5092788;28;20024;-46
2024/01/18 09:16:33;;;;;;;4.10;1.85;;;;;;;13.99;100.00;96724.03;5092740;28;20417;-45
2024/01/18 09:18:59;;;;;;;2.65;1.40;;;;;;;14.12;100.00;96731.34;5092627;28;20378;-46
2024/01/18 09:21:25;;;;;;;3.95;1.55;;;;;;;14.31;100.00;96728.09;5108258;28;20115;-45
2024/01/18 09:23:51;;;;;;;3.60;1.50;;;;;;;14.55;100.00;96731.66;5092526;28;20093;-45
2024/01/18 09:26:18;;;;;;;2.17;1.27;;;;;;;14.69;100.00;96734.50;5092300;28;20052;-45
2024/01/18 09:28:44;;;;;;;4.93;1.35;;;;;;;14.93;100.00;96726.66;5092552;28;20105;-45
2024/01/18 09:31:10;;;;;;;4.47;1.58;;;;;;;15.13;100.00;96723.06;5108076;28;20020;-45
2024/01/18 09:33:39;;;;;;;2.53;1.38;;;;;;;15.35;100.00;96733.16;5092301;28;20024;-45
2024/01/18 09:36:05;;;;;;;4.25;1.48;;;;;;;15.56;100.00;96735.59;5107978;28;20054;-47
2024/01/18 09:38:33;;;;;;;4.10;1.63;;;;;;;15.79;100.00;96726.13;5092226;28;20070;-45
2024/01/18 09:41:07;;;;;;;2.70;1.00;;;;;;;16.01;100.00;96728.25;5107874;28;20495;-46
2024/01/18 09:43:37;;;;;;;4.57;2.05;;;;;;;16.45;100.00;96742.25;5092330;28;20020;-45
2024/01/18 09:46:07;;;;;;;11.80;10.50;;;;;;;16.50;100.00;96728.91;5092113;28;20028;-45
2024/01/18 09:48:34;;;;;;;31.63;28.55;;;;;;;16.82;100.00;96745.97;5092158;28;20103;-45
2024/01/18 09:51:01;;;;;;;11.65;10.48;;;;;;;16.65;100.00;96757.06;5092084;28;20393;-45
2024/01/18 09:53:29;;;;;;;5.30;2.40;;;;;;;16.52;100.00;96764.66;5092140;28;20109;-45
2024/01/18 09:56:07;;;;;;;9.00;6.43;;;;;;;16.26;97.67;96750.16;5090726;28;20032;-45
2024/01/18 09:58:33;;;;;;;5.22;2.15;;;;;;;16.09;100.00;96764.66;5092038;28;20504;-45
2024/01/18 10:00:59;;;;;;;3.58;1.30;;;;;;;15.90;96.99;96753.25;5091753;28;20107;-45
2024/01/18 10:03:28;;;;;;;3.58;1.40;;;;;;;15.82;99.15;96770.53;5091994;28;20039;-47
2024/01/18 10:05:54;;;;;;;5.05;1.90;;;;;;;15.77;98.83;96784.59;5091964;28;20042;-48
2024/01/18 10:08:20;;;;;;;7.22;4.40;;;;;;;15.78;100.00;96788.03;5091927;28;20489;-48
2024/01/18 10:10:46;;;;;;;3.88;2.42;;;;;;;15.87;100.00;96785.56;5091889;28;20035;-47
2024/01/18 10:13:15;;;;;;;5.78;2.50;;;;;;;16.04;100.00;96788.53;5091886;28;20028;-47
2024/01/18 10:15:42;;;;;;;3.30;1.60;;;;;;;16.24;98.94;96790.16;5107524;28;20020;-47
2024/01/18 10:18:08;;;;;;;2.78;1.40;;;;;;;16.89;100.00;96794.09;5091701;28;20099;-48
2024/01/18 10:20:34;;;;;;;5.20;1.60;;;;;;;17.66;100.00;96795.50;5091747;28;20036;-48
2024/01/18 10:23:00;;;;;;;3.03;0.93;;;;;;;17.72;88.27;96800.41;5091760;28;20099;-47
2024/01/18 10:25:27;;;;;;;3.58;1.30;;;;;;;17.89;91.65;96793.81;5091473;28;20071;-45
2024/01/18 10:27:53;;;;;;;5.53;2.10;;;;;;;17.96;94.76;96807.47;5091739;28;20461;-46
2024/01/18 10:30:20;;;;;;;3.88;1.77;;;;;;;17.89;97.07;96809.72;5091660;28;20028;-46
2024/01/18 10:32:49;;;;;;;3.67;1.25;;;;;;;17.70;89.94;96821.16;5090362;28;20097;-46
2024/01/18 10:35:26;;;;;;;1.92;1.48;;;;;;;17.55;98.29;96813.47;5091619;28;20052;-46
2024/01/18 10:38:06;;;;;;;11.57;3.05;;;;;;;17.18;87.95;96807.16;5091625;28;20024;-47
2024/01/18 10:40:39;;;;;;;3.90;2.45;;;;;;;16.84;88.85;96826.75;5091625;28;20490;-48
2024/01/18 10:43:05;;;;;;;104.03;92.90;;;;;;;16.10;86.52;96837.69;5090228;28;20420;-46
2024/01/18 10:45:32;;;;;;;41.03;36.70;;;;;;;14.93;90.70;96827.03;5090266;28;20387;-44
2024/01/18 10:47:58;;;;;;;17.42;14.38;;;;;;;14.25;100.00;96846.06;5090209;28;20088;-43
2024/01/18 10:50:26;;;;;;;7.72;6.88;;;;;;;13.56;100.00;96848.31;5091518;28;20023;-45
2024/01/18 10:52:52;;;;;;;8.35;5.43;;;;;;;13.03;100.00;96850.34;5091475;28;20020;-44
2024/01/18 10:55:18;;;;;;;10.40;5.45;;;;;;;12.71;100.00;96867.13;5107355;28;20058;-43
2024/01/18 10:57:44;;;;;;;9.00;5.78;;;;;;;12.44;100.00;96858.63;5091387;28;20020;-43
2024/01/18 11:00:16;;;;;;;6.10;2.75;;;;;;;12.20;100.00;96848.50;5091433;28;20077;-43
2024/01/18 11:02:44;;;;;;;15.63;9.80;;;;;;;12.05;100.00;96879.97;5107158;28;20405;-44
2024/01/18 11:05:18;;;;;;;7.38;5.47;;;;;;;11.91;100.00;96869.13;5091400;28;20063;-44
2024/01/18 11:07:46;;;;;;;4.00;2.13;;;;;;;11.96;100.00;96838.41;5107200;28;20031;-43
2024/01/18 11:10:12;;;;;;;5.35;2.40;;;;;;;11.94;100.00;96860.72;5091333;28;20020;-44
2024/01/18 11:12:52;;;;;;;3.92;1.77;;;;;;;12.07;100.00;96844.50;5093943;28;20126;-44
2024/01/18 11:15:19;;;;;;;4.97;2.00;;;;;;;12.06;100.00;96878.94;5094973;28;20103;-44
2024/01/18 11:17:51;;;;;;;7.30;3.90;;;;;;;12.21;100.00;96886.13;5095010;28;20034;-46
2024/01/18 11:20:18;;;;;;;4.13;2.13;;;;;;;12.38;100.00;96881.47;5094908;28;20107;-46
2024/01/18 11:22:45;;;;;;;2.72;1.50;;;;;;;12.63;100.00;96882.63;5094965;28;20020;-46